sensor_id;sensor_type;location;lat;lon;timestamp;pressure;altitude;pressure_sealevel;temperature;humidity
79331;BME280;68797;49.782;19.054;2024-02-21T00:01:59;97745.25;;;4.35;100.00
79331;BME280;68797;49.782;19.054;2024-02-21T00:04:57;97748.72;;;4.37;100.00
79331;BME280;68797;49.782;19.054;2024-02-21T00:07:32;97738.22;;;4.42;100.00
79331;BME280;68797;49.782;19.054;2024-02-21T00:10:09;97738.22;;;4.42;100.00
79331;BME280;68797;49.782;19.054;2024-02-21T00:12:54;97732.09;;;4.50;100.00
79331;BME280;68797;49.782;19.054;2024-02-21T00:15:30;97738.22;;;4.29;100.00
79331;BME280;68797;49.782;19.054;2024-02-21T00:18:06;97754.88;;;4.44;100.00
79331;BME280;68797;49.782;19.054;2024-02-21T00:20:53;97740.84;;;4.43;100.00
79331;BME280;68797;49.782;19.054;2024-02-21T00:23:27;97735.59;;;4.46;100.00
79331;BME280;68797;49.782;19.054;2024-02-21T00:26:02;97731.22;;;4.45;100.00
79331;BME280;68797;49.782;19.054;2024-02-21T00:28:34;97730.34;;;4.49;100.00
79331;BME280;68797;49.782;19.054;2024-02-21T00:31:16;97721.56;;;4.41;100.00
79331;BME280;68797;49.782;19.054;2024-02-21T00:33:46;97719.81;;;4.51;100.00
79331;BME280;68797;49.782;19.054;2024-02-21T00:36:18;97725.97;;;4.51;100.00
79331;BME280;68797;49.782;19.054;2024-02-21T00:38:54;97718.97;;;4.47;100.00
79331;BME280;68797;49.782;19.054;2024-02-21T00:41:28;97714.59;;;4.48;100.00
79331;BME280;68797;49.782;19.054;2024-02-21T00:44:02;97711.09;;;4.44;100.00
79331;BME280;68797;49.782;19.054;2024-02-21T00:46:39;97721.59;;;4.47;100.00
79331;BME280;68797;49.782;19.054;2024-02-21T00:49:10;97716.31;;;4.43;100.00
79331;BME280;68797;49.782;19.054;2024-02-21T00:51:42;97704.94;;;4.37;100.00
79331;BME280;68797;49.782;19.054;2024-02-21T00:54:21;97697.06;;;4.30;100.00
79331;BME280;68797;49.782;19.054;2024-02-21T00:56:58;97700.56;;;4.29;100.00
79331;BME280;68797;49.782;19.054;2024-02-21T00:59:39;97698.81;;;4.45;100.00
79331;BME280;68797;49.782;19.054;2024-02-21T01:02:14;97688.31;;;4.48;100.00
79331;BME280;68797;49.782;19.054;2024-02-21T01:04:49;97708.44;;;4.53;100.00
79331;BME280;68797;49.782;19.054;2024-02-21T01:07:25;97702.34;;;4.34;100.00
79331;BME280;68797;49.782;19.054;2024-02-21T01:10:03;97687.44;;;4.36;100.00
79331;BME280;68797;49.782;19.054;2024-02-21T01:12:36;97689.22;;;4.33;100.00
79331;BME280;68797;49.782;19.054;2024-02-21T01:15:19;97681.31;;;4.30;100.00
79331;BME280;68797;49.782;19.054;2024-02-21T01:17:54;97668.19;;;4.27;100.00
79331;BME280;68797;49.782;19.054;2024-02-21T01:20:29;97679.56;;;4.27;100.00
79331;BME280;68797;49.782;19.054;2024-02-21T01:23:05;97657.69;;;4.22;100.00
79331;BME280;68797;49.782;19.054;2024-02-21T01:25:45;97669.94;;;4.25;100.00
79331;BME280;68797;49.782;19.054;2024-02-21T01:28:26;97679.53;;;4.32;100.00
79331;BME280;68797;49.782;19.054;2024-02-21T01:31:06;97669.94;;;4.23;100.00
79331;BME280;68797;49.782;19.054;2024-02-21T01:33:41;97672.56;;;4.25;100.00
79331;BME280;68797;49.782;19.054;2024-02-21T01:36:19;97665.53;;;4.19;100.00
79331;BME280;68797;49.782;19.054;2024-02-21T01:38:51;97665.53;;;4.19;100.00
79331;BME280;68797;49.782;19.054;2024-02-21T01:41:37;97655.91;;;4.09;100.00
79331;BME280;68797;49.782;19.054;2024-02-21T01:44:07;97669.94;;;4.17;100.00
79331;BME280;68797;49.782;19.054;2024-02-21T01:47:02;97665.56;;;4.25;100.00
79331;BME280;68797;49.782;19.054;2024-02-21T01:49:39;97658.53;;;4.18;100.00
79331;BME280;68797;49.782;19.054;2024-02-21T01:52:15;97663.81;;;4.17;100.00
79331;BME280;68797;49.782;19.054;2024-02-21T01:54:48;97657.66;;;4.30;100.00
79331;BME280;68797;49.782;19.054;2024-02-21T01:57:39;97660.31;;;4.33;100.00
79331;BME280;68797;49.782;19.054;2024-02-21T02:00:19;97651.56;;;4.34;100.00
79331;BME280;68797;49.782;19.054;2024-02-21T02:03:11;97646.28;;;4.19;100.00
79331;BME280;68797;49.782;19.054;2024-02-21T02:05:52;97650.66;;;4.09;100.00
79331;BME280;68797;49.782;19.054;2024-02-21T02:08:23;97641.03;;;4.09;100.00
79331;BME280;68797;49.782;19.054;2024-02-21T02:11:00;97648.06;;;4.11;100.00
79331;BME280;68797;49.782;19.054;2024-02-21T02:13:33;97637.56;;;4.15;100.00
79331;BME280;68797;49.782;19.054;2024-02-21T02:16:13;97642.78;;;4.18;100.00
79331;BME280;68797;49.782;19.054;2024-02-21T02:18:51;97640.19;;;4.21;100.00
79331;BME280;68797;49.782;19.054;2024-02-21T02:21:32;97643.69;;;4.23;100.00
79331;BME280;68797;49.782;19.054;2024-02-21T02:28:26;97628.78;;;4.18;100.00
79331;BME280;68797;49.782;19.054;2024-02-21T02:31:09;97629.66;;;4.18;100.00
79331;BME280;68797;49.782;19.054;2024-02-21T02:33:47;97627.06;;;4.23;100.00
79331;BME280;68797;49.782;19.054;2024-02-21T02:36:26;97630.53;;;4.32;100.00
79331;BME280;68797;49.782;19.054;2024-02-21T02:39:15;97633.13;;;4.40;100.00
79331;BME280;68797;49.782;19.054;2024-02-21T02:42:01;97625.25;;;4.38;100.00
79331;BME280;68797;49.782;19.054;2024-02-21T02:44:36;97630.50;;;4.38;100.00
79331;BME280;68797;49.782;19.054;2024-02-21T02:47:08;97620.91;;;4.36;100.00
79331;BME280;68797;49.782;19.054;2024-02-21T02:49:42;97642.78;;;4.38;100.00
79331;BME280;68797;49.782;19.054;2024-02-21T02:52:20;97626.16;;;4.36;100.00
79331;BME280;68797;49.782;19.054;2024-02-21T02:54:55;97627.91;;;4.37;100.00
79331;BME280;68797;49.782;19.054;2024-02-21T02:57:26;97622.63;;;4.38;100.00
79331;BME280;68797;49.782;19.054;2024-02-21T03:00:12;97632.25;;;4.43;100.00
79331;BME280;68797;49.782;19.054;2024-02-21T03:03:05;97611.25;;;4.30;100.00
79331;BME280;68797;49.782;19.054;2024-02-21T03:05:47;97624.41;;;4.35;100.00
79331;BME280;68797;49.782;19.054;2024-02-21T03:08:29;97630.50;;;4.38;100.00
79331;BME280;68797;49.782;19.054;2024-02-21T03:11:17;97624.41;;;4.44;100.00
79331;BME280;68797;49.782;19.054;2024-02-21T03:13:50;97622.63;;;4.40;100.00
79331;BME280;68797;49.782;19.054;2024-02-21T03:16:24;97614.78;;;4.32;100.00
79331;BME280;68797;49.782;19.054;2024-02-21T03:19:02;97623.53;;;4.34;100.00
79331;BME280;68797;49.782;19.054;2024-02-21T03:21:40;97633.13;;;4.43;100.00
79331;BME280;68797;49.782;19.054;2024-02-21T03:24:25;97613.00;;;4.31;100.00
79331;BME280;68797;49.782;19.054;2024-02-21T03:27:04;97620.00;;;4.37;100.00
79331;BME280;68797;49.782;19.054;2024-02-21T03:29:40;97619.16;;;4.27;100.00
79331;BME280;68797;49.782;19.054;2024-02-21T03:32:10;97615.63;;;4.30;100.00
79331;BME280;68797;49.782;19.054;2024-02-21T03:34:41;97613.00;;;4.30;100.00
79331;BME280;68797;49.782;19.054;2024-02-21T03:37:25;97613.03;;;4.24;100.00
79331;BME280;68797;49.782;19.054;2024-02-21T03:40:09;97601.66;;;4.22;100.00
79331;BME280;68797;49.782;19.054;2024-02-21T03:42:40;97608.63;;;4.30;100.00
79331;BME280;68797;49.782;19.054;2024-02-21T03:45:17;97603.41;;;4.24;100.00
79331;BME280;68797;49.782;19.054;2024-02-21T03:48:09;97591.16;;;4.16;100.00
79331;BME280;68797;49.782;19.054;2024-02-21T03:50:43;97612.16;;;4.25;100.00
79331;BME280;68797;49.782;19.054;2024-02-21T03:53:19;97606.03;;;4.18;100.00
79331;BME280;68797;49.782;19.054;2024-02-21T03:55:55;97610.41;;;4.13;100.00
79331;BME280;68797;49.782;19.054;2024-02-21T03:58:36;97611.28;;;4.14;100.00
79331;BME280;68797;49.782;19.054;2024-02-21T04:01:25;97609.56;;;4.11;100.00
79331;BME280;68797;49.782;19.054;2024-02-21T04:04:09;97617.41;;;4.19;100.00
79331;BME280;68797;49.782;19.054;2024-02-21T04:06:50;97602.53;;;4.18;100.00
79331;BME280;68797;49.782;19.054;2024-02-21T04:09:34;97597.28;;;4.22;100.00
79331;BME280;68797;49.782;19.054;2024-02-21T04:12:09;97595.50;;;4.20;100.00
79331;BME280;68797;49.782;19.054;2024-02-21T04:14:42;97586.78;;;4.22;100.00
79331;BME280;68797;49.782;19.054;2024-02-21T04:17:14;97599.03;;;4.26;100.00
79331;BME280;68797;49.782;19.054;2024-02-21T04:20:04;97600.75;;;4.20;100.00
79331;BME280;68797;49.782;19.054;2024-02-21T04:22:45;97597.28;;;4.19;100.00
79331;BME280;68797;49.782;19.054;2024-02-21T04:25:22;97601.66;;;4.09;100.00
79331;BME280;68797;49.782;19.054;2024-02-21T04:27:55;97593.78;;;4.17;100.00
79331;BME280;68797;49.782;19.054;2024-02-21T04:30:30;97590.28;;;4.15;100.00
79331;BME280;68797;49.782;19.054;2024-02-21T04:33:03;97570.19;;;4.00;100.00
79331;BME280;68797;49.782;19.054;2024-02-21T04:35:31;97588.53;;;4.09;100.00
79331;BME280;68797;49.782;19.054;2024-02-21T04:38:01;97591.16;;;4.09;100.00
79331;BME280;68797;49.782;19.054;2024-02-21T04:40:36;97582.41;;;3.98;100.00
79331;BME280;68797;49.782;19.054;2024-02-21T04:43:10;97584.19;;;3.90;100.00
79331;BME280;68797;49.782;19.054;2024-02-21T04:45:55;97593.78;;;3.85;100.00
79331;BME280;68797;49.782;19.054;2024-02-21T04:48:29;97579.78;;;3.74;100.00
79331;BME280;68797;49.782;19.054;2024-02-21T04:51:07;97588.53;;;3.85;100.00
79331;BME280;68797;49.782;19.054;2024-02-21T04:53:37;97593.78;;;3.87;100.00
79331;BME280;68797;49.782;19.054;2024-02-21T04:56:11;97575.44;;;3.85;100.00
79331;BME280;68797;49.782;19.054;2024-02-21T04:58:43;97586.81;;;3.83;100.00
79331;BME280;68797;49.782;19.054;2024-02-21T05:01:21;97585.94;;;3.82;100.00
79331;BME280;68797;49.782;19.054;2024-02-21T05:04:14;97585.91;;;3.76;100.00
79331;BME280;68797;49.782;19.054;2024-02-21T05:06:52;97592.91;;;3.86;100.00
79331;BME280;68797;49.782;19.054;2024-02-21T05:09:29;97576.31;;;3.78;100.00
79331;BME280;68797;49.782;19.054;2024-02-21T05:12:12;97580.69;;;3.77;100.00
79331;BME280;68797;49.782;19.054;2024-02-21T05:14:49;97572.81;;;3.74;100.00
79331;BME280;68797;49.782;19.054;2024-02-21T05:17:26;97565.81;;;3.75;100.00
79331;BME280;68797;49.782;19.054;2024-02-21T05:19:56;97567.56;;;3.81;100.00
79331;BME280;68797;49.782;19.054;2024-02-21T05:22:30;97565.81;;;3.72;100.00
79331;BME280;68797;49.782;19.054;2024-02-21T05:25:01;97562.31;;;3.81;100.00
79331;BME280;68797;49.782;19.054;2024-02-21T05:27:38;97564.06;;;3.75;100.00
79331;BME280;68797;49.782;19.054;2024-02-21T05:30:08;97557.91;;;3.86;100.00
79331;BME280;68797;49.782;19.054;2024-02-21T05:32:44;97555.31;;;3.89;100.00
79331;BME280;68797;49.782;19.054;2024-02-21T05:35:25;97552.69;;;3.75;100.00
79331;BME280;68797;49.782;19.054;2024-02-21T05:38:15;97563.19;;;3.70;100.00
79331;BME280;68797;49.782;19.054;2024-02-21T05:40:54;97555.31;;;3.54;100.00
79331;BME280;68797;49.782;19.054;2024-02-21T05:43:22;97564.94;;;3.50;100.00
79331;BME280;68797;49.782;19.054;2024-02-21T05:46:05;97556.16;;;3.40;100.00
79331;BME280;68797;49.782;19.054;2024-02-21T05:48:41;97543.03;;;3.11;100.00
79331;BME280;68797;49.782;19.054;2024-02-21T05:51:19;97548.28;;;3.28;100.00
79331;BME280;68797;49.782;19.054;2024-02-21T05:53:49;97564.94;;;3.35;100.00
79331;BME280;68797;49.782;19.054;2024-02-21T05:56:28;97545.69;;;3.34;100.00
79331;BME280;68797;49.782;19.054;2024-02-21T06:02:37;97551.78;;;3.30;100.00
79331;BME280;68797;49.782;19.054;2024-02-21T06:05:11;97539.56;;;3.35;100.00
79331;BME280;68797;49.782;19.054;2024-02-21T06:08:07;97544.78;;;3.32;100.00
79331;BME280;68797;49.782;19.054;2024-02-21T06:10:36;97557.03;;;3.41;100.00
79331;BME280;68797;49.782;19.054;2024-02-21T06:13:14;97564.94;;;3.50;100.00
79331;BME280;68797;49.782;19.054;2024-02-21T06:15:50;97552.69;;;3.54;100.00
79331;BME280;68797;49.782;19.054;2024-02-21T06:18:30;97539.56;;;3.60;100.00
79331;BME280;68797;49.782;19.054;2024-02-21T06:24:02;97539.56;;;3.73;100.00
79331;BME280;68797;49.782;19.054;2024-02-21T06:26:53;97550.91;;;3.88;100.00
79331;BME280;68797;49.782;19.054;2024-02-21T06:29:37;97558.81;;;4.00;100.00
79331;BME280;68797;49.782;19.054;2024-02-21T06:32:14;97557.03;;;4.05;100.00
79331;BME280;68797;49.782;19.054;2024-02-21T06:48:59;97539.28;;;4.76;100.00
79331;BME280;68797;49.782;19.054;2024-02-21T06:52:18;97566.34;;;4.97;100.00
79331;BME280;68797;49.782;19.054;2024-02-21T06:55:43;97559.31;;;5.04;100.00
79331;BME280;68797;49.782;19.054;2024-02-21T06:58:16;97557.50;;;5.15;100.00
79331;BME280;68797;49.782;19.054;2024-02-21T07:00:55;97551.34;;;5.18;100.00
79331;BME280;68797;49.782;19.054;2024-02-21T07:03:32;97547.03;;;5.08;100.00
79331;BME280;68797;49.782;19.054;2024-02-21T07:06:09;97547.00;;;5.12;100.00
79331;BME280;68797;49.782;19.054;2024-02-21T07:08:40;97548.88;;;4.86;100.00
79331;BME280;68797;49.782;19.054;2024-02-21T07:11:31;97546.22;;;4.93;100.00
79331;BME280;68797;49.782;19.054;2024-02-21T07:14:07;97554.13;;;4.92;100.00
79331;BME280;68797;49.782;19.054;2024-02-21T07:21:00;97553.13;;;5.14;100.00
79331;BME280;68797;49.782;19.054;2024-02-21T07:24:43;97551.31;;;5.25;100.00
79331;BME280;68797;49.782;19.054;2024-02-21T07:28:27;97552.16;;;5.34;100.00
79331;BME280;68797;49.782;19.054;2024-02-21T07:32:25;97545.06;;;5.45;100.00
79331;BME280;68797;49.782;19.054;2024-02-21T07:40:29;97540.47;;;5.65;100.00
79331;BME280;68797;49.782;19.054;2024-02-21T07:44:52;97542.25;;;5.63;100.00
79331;BME280;68797;49.782;19.054;2024-02-21T07:48:04;97521.31;;;5.51;100.00
79331;BME280;68797;49.782;19.054;2024-02-21T07:51:45;97531.75;;;5.60;100.00
79331;BME280;68797;49.782;19.054;2024-02-21T08:00:10;97541.34;;;5.70;100.00
79331;BME280;68797;49.782;19.054;2024-02-21T08:22:06;97512.84;;;6.15;96.20
79331;BME280;68797;49.782;19.054;2024-02-21T08:24:36;97515.50;;;6.15;96.69
79331;BME280;68797;49.782;19.054;2024-02-21T08:27:04;97511.91;;;6.22;96.34
79331;BME280;68797;49.782;19.054;2024-02-21T08:29:33;97509.25;;;6.25;96.43
79331;BME280;68797;49.782;19.054;2024-02-21T08:32:00;97495.16;;;6.28;94.57
79331;BME280;68797;49.782;19.054;2024-02-21T08:34:28;97509.91;;;6.44;98.83
79331;BME280;68797;49.782;19.054;2024-02-21T08:37:02;97506.41;;;6.42;96.68
79331;BME280;68797;49.782;19.054;2024-02-21T08:39:36;97504.66;;;6.44;95.23
79331;BME280;68797;49.782;19.054;2024-02-21T08:42:03;97499.34;;;6.46;95.01
79331;BME280;68797;49.782;19.054;2024-02-21T08:44:33;97505.38;;;6.55;96.75
79331;BME280;68797;49.782;19.054;2024-02-21T08:47:01;97500.19;;;6.49;93.28
79331;BME280;68797;49.782;19.054;2024-02-21T08:49:38;97492.28;;;6.48;90.06
79331;BME280;68797;49.782;19.054;2024-02-21T08:52:05;97492.97;;;6.63;93.28
79331;BME280;68797;49.782;19.054;2024-02-21T08:54:33;97497.78;;;6.98;95.20
79331;BME280;68797;49.782;19.054;2024-02-21T08:57:01;97484.44;;;7.11;97.68
79331;BME280;68797;49.782;19.054;2024-02-21T08:59:31;97490.53;;;7.14;94.75
79331;BME280;68797;49.782;19.054;2024-02-21T09:01:57;97492.06;;;7.27;90.49
79331;BME280;68797;49.782;19.054;2024-02-21T09:04:24;97488.78;;;7.13;92.40
79331;BME280;68797;49.782;19.054;2024-02-21T09:06:52;97495.13;;;7.00;98.95
79331;BME280;68797;49.782;19.054;2024-02-21T09:09:26;97490.91;;;6.85;88.62
79331;BME280;68797;49.782;19.054;2024-02-21T09:11:56;97484.88;;;7.37;94.28
79331;BME280;68797;49.782;19.054;2024-02-21T09:14:29;97476.56;;;7.62;87.03
79331;BME280;68797;49.782;19.054;2024-02-21T09:16:55;97482.78;;;7.59;93.32
79331;BME280;68797;49.782;19.054;2024-02-21T09:19:23;97486.34;;;7.56;89.48
79331;BME280;68797;49.782;19.054;2024-02-21T09:21:50;97482.31;;;7.31;90.96
79331;BME280;68797;49.782;19.054;2024-02-21T09:24:23;97485.00;;;7.29;91.46
79331;BME280;68797;49.782;19.054;2024-02-21T09:26:51;97488.81;;;7.09;94.17
79331;BME280;68797;49.782;19.054;2024-02-21T09:29:22;97479.09;;;7.14;91.32
79331;BME280;68797;49.782;19.054;2024-02-21T09:31:49;97491.56;;;7.03;92.61
79331;BME280;68797;49.782;19.054;2024-02-21T09:34:20;97476.31;;;7.23;87.45
79331;BME280;68797;49.782;19.054;2024-02-21T09:36:48;97492.41;;;7.05;93.63
79331;BME280;68797;49.782;19.054;2024-02-21T09:39:15;97485.41;;;7.02;92.50
79331;BME280;68797;49.782;19.054;2024-02-21T09:41:54;97483.38;;;7.22;93.85
79331;BME280;68797;49.782;19.054;2024-02-21T09:44:36;97475.03;;;7.98;91.34
79331;BME280;68797;49.782;19.054;2024-02-21T09:47:15;97467.53;;;8.24;88.07
79331;BME280;68797;49.782;19.054;2024-02-21T09:49:45;97471.19;;;8.62;89.18
79331;BME280;68797;49.782;19.054;2024-02-21T09:52:13;97479.72;;;8.74;85.16
79331;BME280;68797;49.782;19.054;2024-02-21T09:54:43;97473.31;;;8.88;86.86
79331;BME280;68797;49.782;19.054;2024-02-21T09:57:11;97467.53;;;9.09;84.59
79331;BME280;68797;49.782;19.054;2024-02-21T09:59:39;97486.78;;;9.16;80.91
79331;BME280;68797;49.782;19.054;2024-02-21T10:02:08;97485.59;;;9.29;78.02
79331;BME280;68797;49.782;19.054;2024-02-21T10:04:40;97493.28;;;9.01;80.29
79331;BME280;68797;49.782;19.054;2024-02-21T10:07:09;97491.72;;;9.31;80.31
79331;BME280;68797;49.782;19.054;2024-02-21T10:09:36;97495.72;;;9.49;76.55
79331;BME280;68797;49.782;19.054;2024-02-21T10:12:12;97494.31;;;9.34;78.80
79331;BME280;68797;49.782;19.054;2024-02-21T10:14:40;97485.00;;;9.16;83.44
79331;BME280;68797;49.782;19.054;2024-02-21T10:17:14;97485.00;;;9.16;81.88
79331;BME280;68797;49.782;19.054;2024-02-21T10:19:41;97485.88;;;9.17;81.93
79331;BME280;68797;49.782;19.054;2024-02-21T10:22:09;97473.69;;;9.10;82.34
79331;BME280;68797;49.782;19.054;2024-02-21T10:24:38;97473.25;;;8.89;81.38
79331;BME280;68797;49.782;19.054;2024-02-21T10:27:09;97471.84;;;8.73;79.19
79331;BME280;68797;49.782;19.054;2024-02-21T10:29:49;97464.00;;;8.68;85.49
79331;BME280;68797;49.782;19.054;2024-02-21T10:32:19;97468.44;;;8.68;84.15
79331;BME280;68797;49.782;19.054;2024-02-21T10:35:04;97464.00;;;8.68;83.80
79331;BME280;68797;49.782;19.054;2024-02-21T10:37:33;97463.31;;;8.59;84.37
79331;BME280;68797;49.782;19.054;2024-02-21T10:40:01;97470.25;;;8.64;82.85
79331;BME280;68797;49.782;19.054;2024-02-21T10:42:36;97466.03;;;8.56;79.19
79331;BME280;68797;49.782;19.054;2024-02-21T10:45:07;97461.72;;;8.50;81.18
79331;BME280;68797;49.782;19.054;2024-02-21T10:47:39;97458.16;;;8.06;80.80
79331;BME280;68797;49.782;19.054;2024-02-21T10:50:11;97461.38;;;8.24;81.50
79331;BME280;68797;49.782;19.054;2024-02-21T10:53:40;97452.59;;;8.66;81.18
79331;BME280;68797;49.782;19.054;2024-02-21T10:58:53;97448.63;;;8.87;77.63
79331;BME280;68797;49.782;19.054;2024-02-21T11:01:31;97455.56;;;8.91;77.49
79331;BME280;68797;49.782;19.054;2024-02-21T11:04:03;97440.47;;;8.95;78.50
79331;BME280;68797;49.782;19.054;2024-02-21T11:06:35;97436.25;;;8.88;74.72
79331;BME280;68797;49.782;19.054;2024-02-21T11:11:34;97435.00;;;9.04;76.26
79331;BME280;68797;49.782;19.054;2024-02-21T11:14:20;97428.78;;;9.05;75.47
79331;BME280;68797;49.782;19.054;2024-02-21T11:16:56;97426.13;;;9.05;79.79
79331;BME280;68797;49.782;19.054;2024-02-21T11:19:23;97426.31;;;8.97;80.60
79331;BME280;68797;49.782;19.054;2024-02-21T11:21:54;97417.66;;;8.91;77.10
79331;BME280;68797;49.782;19.054;2024-02-21T11:24:35;97421.97;;;8.95;77.15
79331;BME280;68797;49.782;19.054;2024-02-21T11:27:15;97405.13;;;8.99;79.00
79331;BME280;68797;49.782;19.054;2024-02-21T11:29:46;97400.00;;;8.91;76.58
79331;BME280;68797;49.782;19.054;2024-02-21T11:32:18;97401.75;;;8.92;76.84
79331;BME280;68797;49.782;19.054;2024-02-21T11:35:02;97395.13;;;8.73;74.90
79331;BME280;68797;49.782;19.054;2024-02-21T11:37:34;97401.28;;;8.73;77.42
79331;BME280;68797;49.782;19.054;2024-02-21T11:40:13;97395.19;;;8.70;79.30
79331;BME280;68797;49.782;19.054;2024-02-21T11:42:43;97399.09;;;8.54;79.73
79331;BME280;68797;49.782;19.054;2024-02-21T11:45:15;97386.03;;;8.46;79.74
79331;BME280;68797;49.782;19.054;2024-02-21T11:47:44;97390.69;;;8.33;79.80
79331;BME280;68797;49.782;19.054;2024-02-21T11:50:10;97385.53;;;8.26;77.98
79331;BME280;68797;49.782;19.054;2024-02-21T11:52:38;97379.25;;;8.31;79.26
79331;BME280;68797;49.782;19.054;2024-02-21T11:55:05;97384.41;;;8.39;82.23
79331;BME280;68797;49.782;19.054;2024-02-21T11:57:35;97383.66;;;8.31;80.14
79331;BME280;68797;49.782;19.054;2024-02-21T12:00:17;97388.22;;;8.24;80.48
79331;BME280;68797;49.782;19.054;2024-02-21T12:02:50;97382.81;;;8.29;79.04
79331;BME280;68797;49.782;19.054;2024-02-21T12:05:21;97385.22;;;8.42;80.74
79331;BME280;68797;49.782;19.054;2024-02-21T12:07:51;97385.47;;;8.29;81.31
79331;BME280;68797;49.782;19.054;2024-02-21T12:10:20;97362.22;;;8.03;81.83
79331;BME280;68797;49.782;19.054;2024-02-21T12:12:51;97372.59;;;8.13;84.73
79331;BME280;68797;49.782;19.054;2024-02-21T12:15:20;97372.00;;;7.98;81.94
79331;BME280;68797;49.782;19.054;2024-02-21T12:17:47;97369.59;;;7.87;83.58
79331;BME280;68797;49.782;19.054;2024-02-21T12:20:21;97372.44;;;7.76;83.26
79331;BME280;68797;49.782;19.054;2024-02-21T12:22:50;97370.63;;;7.78;84.78
79331;BME280;68797;49.782;19.054;2024-02-21T12:25:26;97374.25;;;7.73;85.49
79331;BME280;68797;49.782;19.054;2024-02-21T12:27:54;97360.81;;;7.85;85.07
79331;BME280;68797;49.782;19.054;2024-02-21T12:30:31;97360.63;;;7.94;84.52
79331;BME280;68797;49.782;19.054;2024-02-21T12:33:10;97365.91;;;7.94;85.96
79331;BME280;68797;49.782;19.054;2024-02-21T12:35:39;97356.47;;;7.82;87.61
79331;BME280;68797;49.782;19.054;2024-02-21T12:38:06;97357.16;;;7.92;82.54
79331;BME280;68797;49.782;19.054;2024-02-21T12:40:42;97361.44;;;7.99;83.52
79331;BME280;68797;49.782;19.054;2024-02-21T12:43:13;97359.75;;;7.94;84.49
79331;BME280;68797;49.782;19.054;2024-02-21T12:45:41;97350.09;;;7.93;83.43
79331;BME280;68797;49.782;19.054;2024-02-21T12:48:09;97353.69;;;7.90;84.30
79331;BME280;68797;49.782;19.054;2024-02-21T12:50:48;97346.88;;;7.78;87.69
79331;BME280;68797;49.782;19.054;2024-02-21T12:53:31;97338.19;;;7.72;87.30
79331;BME280;68797;49.782;19.054;2024-02-21T12:56:05;97334.94;;;7.57;87.18
79331;BME280;68797;49.782;19.054;2024-02-21T12:58:35;97353.38;;;7.59;87.39
79331;BME280;68797;49.782;19.054;2024-02-21T13:01:04;97351.00;;;7.45;89.64
79331;BME280;68797;49.782;19.054;2024-02-21T13:03:33;97334.56;;;7.29;90.87
79331;BME280;68797;49.782;19.054;2024-02-21T13:06:02;97346.84;;;7.31;91.35
79331;BME280;68797;49.782;19.054;2024-02-21T13:08:30;97329.47;;;7.19;93.24
79331;BME280;68797;49.782;19.054;2024-02-21T13:10:59;97321.53;;;7.22;92.61
79331;BME280;68797;49.782;19.054;2024-02-21T13:13:26;97318.72;;;7.29;95.17
79331;BME280;68797;49.782;19.054;2024-02-21T13:15:53;97322.19;;;7.33;93.21
79331;BME280;68797;49.782;19.054;2024-02-21T13:18:21;97312.56;;;7.29;95.68
79331;BME280;68797;49.782;19.054;2024-02-21T13:20:48;97330.94;;;7.37;96.20
79331;BME280;68797;49.782;19.054;2024-02-21T13:27:52;97314.84;;;7.49;91.62
79331;BME280;68797;49.782;19.054;2024-02-21T13:31:33;97312.31;;;7.44;95.18
79331;BME280;68797;49.782;19.054;2024-02-21T13:34:04;97307.88;;;7.46;95.10
79331;BME280;68797;49.782;19.054;2024-02-21T13:36:37;97320.44;;;7.34;95.55
79331;BME280;68797;49.782;19.054;2024-02-21T13:39:20;97308.00;;;7.39;98.11
79331;BME280;68797;49.782;19.054;2024-02-21T13:42:11;97284.19;;;7.42;98.96
79331;BME280;68797;49.782;19.054;2024-02-21T13:45:04;97285.25;;;7.33;92.29
79331;BME280;68797;49.782;19.054;2024-02-21T13:48:12;97316.75;;;7.41;96.73
79331;BME280;68797;49.782;19.054;2024-02-21T13:50:51;97299.16;;;7.43;94.34
79331;BME280;68797;49.782;19.054;2024-02-21T13:58:34;97281.91;;;7.23;97.31
79331;BME280;68797;49.782;19.054;2024-02-21T14:01:20;97297.41;;;7.40;99.02
79331;BME280;68797;49.782;19.054;2024-02-21T14:04:11;97270.41;;;7.26;98.83
79331;BME280;68797;49.782;19.054;2024-02-21T14:07:01;97273.03;;;7.27;100.00
79331;BME280;68797;49.782;19.054;2024-02-21T14:09:56;97276.44;;;7.34;98.15
79331;BME280;68797;49.782;19.054;2024-02-21T14:13:08;97272.97;;;7.31;97.95
79331;BME280;68797;49.782;19.054;2024-02-21T14:16:00;97268.06;;;7.11;92.79
79331;BME280;68797;49.782;19.054;2024-02-21T14:19:10;97277.03;;;7.01;97.10
79331;BME280;68797;49.782;19.054;2024-02-21T14:21:58;97273.44;;;7.05;99.48
79331;BME280;68797;49.782;19.054;2024-02-21T14:24:29;97272.69;;;6.96;96.89
79331;BME280;68797;49.782;19.054;2024-02-21T14:27:11;97271.84;;;6.96;95.95
79331;BME280;68797;49.782;19.054;2024-02-21T14:29:44;97277.06;;;6.99;97.20
79331;BME280;68797;49.782;19.054;2024-02-21T14:32:19;97265.47;;;7.08;97.10
79331;BME280;68797;49.782;19.054;2024-02-21T14:35:00;97249.84;;;6.98;96.13
79331;BME280;68797;49.782;19.054;2024-02-21T14:37:43;97241.69;;;7.11;97.01
79331;BME280;68797;49.782;19.054;2024-02-21T14:40:16;97251.31;;;7.13;98.39
79331;BME280;68797;49.782;19.054;2024-02-21T14:42:54;97252.41;;;7.02;97.46
79331;BME280;68797;49.782;19.054;2024-02-21T14:45:48;97250.31;;;7.19;96.07
79331;BME280;68797;49.782;19.054;2024-02-21T14:48:49;97242.34;;;7.22;91.59
79331;BME280;68797;49.782;19.054;2024-02-21T14:51:15;97237.84;;;7.27;91.89
79331;BME280;68797;49.782;19.054;2024-02-21T14:53:46;97232.81;;;7.15;94.26
79331;BME280;68797;49.782;19.054;2024-02-21T14:56:16;97224.78;;;7.21;97.62
79331;BME280;68797;49.782;19.054;2024-02-21T14:58:50;97216.72;;;7.27;92.59
79331;BME280;68797;49.782;19.054;2024-02-21T15:01:22;97211.50;;;7.25;93.30
79331;BME280;68797;49.782;19.054;2024-02-21T15:03:50;97218.69;;;7.17;94.84
79331;BME280;68797;49.782;19.054;2024-02-21T15:06:20;97224.09;;;7.11;95.56